^^
Saratoga-Weather Station Historical Data
Daily Summary for July 17, 2020 Units:  Metric    English   Both
Daily Weekly Monthly Yearly Custom
  High: Low: Average:
Temperature: 19.8 °C 13.3 °C 15.4 °C
Dew Point: 16.8 °C 12.5 °C 14.2 °C
Humidity: 97% 80% 93%
Wind Speed: 19.3km/h 0km/h 2.9km/h
Wind Gust: 24.1km/h - -
Wind- - SW
Pressure: 1012.9 hPa 1010.2 hPa -
Precipitation: 14.0 mm    
Historical Graphs
 
 
Tabular Data for July 17, 2020
Time Temperature Dew Point Pressure Wind Wind Speed Wind Gust Humidity Rainfall Rate (Hourly) solar
00:02 14.7 °C 13.9 °C 1012.5 hPa Calm     95% 0.0 mm 0 W/m2
00:07 14.6 °C 13.8 °C 1012.5 hPa Calm     95% 0.0 mm 0 W/m2
00:12 14.6 °C 13.8 °C 1012.9 hPa Calm     95% 0.0 mm 0 W/m2
00:17 14.6 °C 13.8 °C 1012.5 hPa Calm     95% 0.0 mm 0 W/m2
00:22 14.5 °C 13.7 °C 1012.9 hPa Calm     95% 0.0 mm 0 W/m2
00:27 14.4 °C 13.6 °C 1012.9 hPa Calm     95% 0.0 mm 0 W/m2
00:32 14.4 °C 13.6 °C 1012.9 hPa Calm     95% 0.0 mm 0 W/m2
00:37 14.4 °C 13.6 °C 1012.9 hPa Calm     95% 0.0 mm 0 W/m2
00:42 14.4 °C 13.8 °C 1012.9 hPa Calm     96% 0.0 mm 0 W/m2
00:47 14.5 °C 13.7 °C 1012.9 hPa Calm     95% 0.0 mm 0 W/m2
00:52 14.5 °C 13.9 °C 1012.9 hPa Calm     96% 0.0 mm 0 W/m2
00:57 14.6 °C 14 °C 1012.9 hPa Calm   1.6 km/h 96% 0.0 mm 0 W/m2
01:02 14.5 °C 13.9 °C 1012.9 hPa Calm     96% 0.0 mm 0 W/m2
01:07 14.4 °C 13.8 °C 1012.9 hPa Calm   1.6 km/h 96% 0.0 mm 0 W/m2
01:12 14.3 °C 13.5 °C 1012.5 hPa Calm     95% 0.0 mm 0 W/m2
01:17 14.2 °C 13.4 °C 1012.5 hPa Calm     95% 0.0 mm 0 W/m2
01:22 14.1 °C 13.3 °C 1012.5 hPa Calm     95% 0.0 mm 0 W/m2
01:27 14 °C 13.4 °C 1012.5 hPa Calm     96% 0.0 mm 0 W/m2
01:32 14 °C 13.4 °C 1012.5 hPa Calm     96% 0.0 mm 0 W/m2
01:37 14 °C 13.4 °C 1012.5 hPa Calm     96% 0.0 mm 0 W/m2
01:42 13.9 °C 13.3 °C 1012.5 hPa Calm     96% 0.0 mm 0 W/m2
01:47 13.8 °C 13.2 °C 1012.5 hPa Calm     96% 0.0 mm 0 W/m2
01:52 13.8 °C 13.2 °C 1012.5 hPa Calm     96% 0.0 mm 0 W/m2
01:57 13.8 °C 13.2 °C 1012.5 hPa Calm   1.6 km/h 96% 0.0 mm 0 W/m2
02:02 13.8 °C 13.2 °C 1012.5 hPa Calm     96% 0.0 mm 0 W/m2
02:07 13.8 °C 13.2 °C 1012.5 hPa Calm   1.6 km/h 96% 0.0 mm 0 W/m2
02:12 13.7 °C 13.1 °C 1012.5 hPa Calm     96% 0.0 mm 0 W/m2
02:17 13.7 °C 13.1 °C 1012.2 hPa Calm     96% 0.0 mm 0 W/m2
02:22 13.6 °C 13 °C 1012.2 hPa Calm     96% 0.0 mm 0 W/m2
02:27 13.7 °C 13.1 °C 1012.5 hPa Calm     96% 0.0 mm 0 W/m2
02:32 13.7 °C 13.1 °C 1012.5 hPa WNW 1.4 km/h 1.6 km/h 96% 0.0 mm 0 W/m2
02:37 13.8 °C 13.2 °C 1012.2 hPa WNW 1.4 km/h 1.6 km/h 96% 0.0 mm 0 W/m2
02:43 13.8 °C 13.2 °C 1012.2 hPa Calm     96% 0.0 mm 0 W/m2
02:48 13.9 °C 13.3 °C 1012.2 hPa Calm     96% 0.0 mm 0 W/m2
02:53 13.9 °C 13.3 °C 1012.2 hPa WNW 1.4 km/h 1.6 km/h 96% 0.0 mm 0 W/m2
02:58 13.9 °C 13.3 °C 1011.9 hPa Calm     96% 0.0 mm 0 W/m2
03:03 14 °C 13.4 °C 1011.9 hPa Calm     96% 0.0 mm 0 W/m2
03:08 14.1 °C 13.5 °C 1011.9 hPa Calm     96% 0.0 mm 0 W/m2
03:13 14.1 °C 13.5 °C 1011.9 hPa Calm     96% 0.0 mm 0 W/m2
03:18 14.1 °C 13.5 °C 1011.9 hPa Calm     96% 0.0 mm 0 W/m2
03:23 14 °C 13.4 °C 1011.9 hPa Calm   1.6 km/h 96% 0.0 mm 0 W/m2
03:28 14 °C 13.4 °C 1011.9 hPa Calm     96% 0.0 mm 0 W/m2
03:33 14 °C 13.4 °C 1011.9 hPa Calm     96% 0.0 mm 0 W/m2
03:38 13.9 °C 13.3 °C 1011.9 hPa Calm     96% 0.0 mm 0 W/m2
03:43 13.9 °C 13.3 °C 1011.9 hPa Calm     96% 0.0 mm 0 W/m2
03:48 13.9 °C 13.3 °C 1011.5 hPa Calm     96% 0.0 mm 0 W/m2
03:53 13.9 °C 13.3 °C 1011.5 hPa Calm     96% 0.0 mm 0 W/m2
03:58 13.9 °C 13.3 °C 1011.5 hPa Calm     96% 0.0 mm 0 W/m2
04:03 13.9 °C 13.4 °C 1011.5 hPa WNW 1.4 km/h 3.2 km/h 97% 0.0 mm 0 W/m2
04:08 13.9 °C 13.4 °C 1011.5 hPa Calm     97% 0.0 mm 0 W/m2
04:13 13.9 °C 13.4 °C 1011.2 hPa Calm   3.2 km/h 97% 0.0 mm 0 W/m2
04:18 13.9 °C 13.4 °C 1011.2 hPa Calm     97% 0.0 mm 0 W/m2
04:23 13.9 °C 13.4 °C 1011.2 hPa Calm     97% 0.0 mm 0 W/m2
04:28 13.9 °C 13.4 °C 1011.2 hPa Calm     97% 0.0 mm 0 W/m2
04:33 13.8 °C 13.3 °C 1011.2 hPa Calm   3.2 km/h 97% 0.0 mm 0 W/m2
04:38 13.8 °C 13.3 °C 1011.2 hPa Calm     97% 0.0 mm 0 W/m2
04:43 13.8 °C 13.3 °C 1011.2 hPa Calm   3.2 km/h 97% 0.0 mm 0 W/m2
04:48 13.8 °C 13.3 °C 1011.2 hPa Calm     97% 0.0 mm 0 W/m2
04:53 13.8 °C 13.3 °C 1011.2 hPa Calm     97% 0.0 mm 0 W/m2
04:58 13.7 °C 13.2 °C 1010.8 hPa Calm     97% 0.0 mm 0 W/m2
05:03 13.7 °C 13.1 °C 1010.8 hPa Calm     96% 0.0 mm 0 W/m2
05:08 13.6 °C 13 °C 1010.8 hPa Calm     96% 0.0 mm 0 W/m2
05:13 13.5 °C 13 °C 1010.8 hPa Calm     97% 0.0 mm 0 W/m2
05:18 13.5 °C 13 °C 1010.8 hPa Calm     97% 0.0 mm 0 W/m2
05:23 13.4 °C 12.9 °C 1010.8 hPa Calm     97% 0.0 mm 0 W/m2
05:29 13.4 °C 12.9 °C 1010.8 hPa Calm     97% 0.0 mm 0 W/m2
05:34 13.4 °C 12.9 °C 1010.8 hPa Calm     97% 0.0 mm 0 W/m2
05:39 13.4 °C 12.9 °C 1010.8 hPa Calm     97% 0.0 mm 0 W/m2
05:44 13.5 °C 13 °C 1010.8 hPa Calm     97% 0.0 mm 5 W/m2
05:49 13.6 °C 13.1 °C 1010.8 hPa Calm     97% 0.0 mm 9 W/m2
05:54 13.6 °C 13.1 °C 1010.8 hPa Calm     97% 0.0 mm 12 W/m2
05:59 13.7 °C 13.2 °C 1010.8 hPa Calm     97% 0.0 mm 16 W/m2
06:04 13.7 °C 13.2 °C 1010.8 hPa Calm     97% 0.0 mm 25 W/m2
06:09 13.8 °C 13.3 °C 1010.8 hPa Calm     97% 0.0 mm 30 W/m2
06:14 13.8 °C 13.3 °C 1010.8 hPa Calm     97% 0.0 mm 40 W/m2
06:19 13.8 °C 13.3 °C 1010.8 hPa Calm     97% 0.0 mm 46 W/m2
06:24 13.9 °C 13.4 °C 1010.8 hPa Calm     97% 0.0 mm 51 W/m2
06:29 13.9 °C 13.4 °C 1010.8 hPa Calm     97% 0.0 mm 56 W/m2
06:34 14.1 °C 13.6 °C 1010.8 hPa NNE 3.2 km/h 3.2 km/h 97% 0.0 mm 65 W/m2
06:39 14.2 °C 13.7 °C 1010.8 hPa Calm   1.6 km/h 97% 0.0 mm 86 W/m2
06:44 14.3 °C 13.8 °C 1010.8 hPa Calm   1.6 km/h 97% 0.0 mm 104 W/m2
06:49 14.3 °C 13.8 °C 1010.8 hPa Calm     97% 0.0 mm 113 W/m2
06:54 14.5 °C 14 °C 1010.8 hPa Calm   1.6 km/h 97% 0.0 mm 127 W/m2
06:59 14.6 °C 14.1 °C 1010.8 hPa Calm     97% 0.0 mm 132 W/m2
07:04 14.8 °C 14.3 °C 1010.8 hPa Calm   1.6 km/h 97% 0.0 mm 137 W/m2
07:09 14.9 °C 14.4 °C 1010.8 hPa ENE 1.4 km/h 3.2 km/h 97% 0.0 mm 137 W/m2
07:14 15.1 °C 14.6 °C 1011.2 hPa ENE 3.2 km/h 4.8 km/h 97% 0.0 mm 120 W/m2
07:19 15.1 °C 14.6 °C 1010.8 hPa NE 1.4 km/h 1.6 km/h 97% 0.0 mm 111 W/m2
07:24 15.2 °C 14.7 °C 1010.8 hPa NE 1.4 km/h 1.6 km/h 97% 0.0 mm 98 W/m2
07:29 15.2 °C 14.7 °C 1011.2 hPa Calm     97% 0.0 mm 109 W/m2
07:34 15.3 °C 14.7 °C 1011.2 hPa Calm   1.6 km/h 96% 0.0 mm 141 W/m2
07:39 15.4 °C 14.8 °C 1011.2 hPa ESE 1.4 km/h 4.8 km/h 96% 0.0 mm 142 W/m2
07:44 15.6 °C 15 °C 1011.2 hPa ESE 1.4 km/h 1.6 km/h 96% 0.0 mm 176 W/m2
07:49 15.7 °C 15.1 °C 1011.2 hPa ESE 1.4 km/h 1.6 km/h 96% 0.0 mm 197 W/m2
07:54 15.9 °C 15.1 °C 1011.2 hPa Calm     95% 0.0 mm 206 W/m2
07:59 16.1 °C 15.3 °C 1011.2 hPa East 1.4 km/h 3.2 km/h 95% 0.0 mm 265 W/m2
08:04 16.4 °C 15.6 °C 1011.2 hPa ENE 3.2 km/h 3.2 km/h 95% 0.0 mm 279 W/m2
08:09 16.7 °C 15.7 °C 1011.2 hPa Calm   4.8 km/h 94% 0.0 mm 385 W/m2
08:14 17.1 °C 16 °C 1011.2 hPa East 4.7 km/h 4.8 km/h 93% 0.0 mm 353 W/m2
08:19 17.6 °C 16.1 °C 1011.2 hPa Calm   3.2 km/h 91% 0.0 mm 369 W/m2
08:24 17.7 °C 15.9 °C 1011.2 hPa NW 1.4 km/h 3.2 km/h 89% 0.0 mm 297 W/m2
08:29 17.7 °C 15.7 °C 1011.2 hPa Calm   3.2 km/h 88% 0.0 mm 436 W/m2
08:34 17.7 °C 15.9 °C 1011.2 hPa Calm   1.6 km/h 89% 0.0 mm 413 W/m2
08:39 17.9 °C 15.7 °C 1011.2 hPa Calm   3.2 km/h 87% 0.0 mm 295 W/m2
08:45 18.3 °C 16.3 °C 1011.2 hPa NE 4.8 km/h 4.8 km/h 88% 0.0 mm 487 W/m2
08:50 18.9 °C 16.5 °C 1011.2 hPa Calm   3.2 km/h 86% 0.0 mm 223 W/m2
08:55 19.1 °C 16.1 °C 1011.2 hPa ENE 1.4 km/h 4.8 km/h 83% 0.0 mm 195 W/m2
09:00 19 °C 16 °C 1011.2 hPa NE 1.4 km/h 3.2 km/h 83% 0.0 mm 264 W/m2
09:05 19.1 °C 16.3 °C 1011.2 hPa ENE 4.7 km/h 4.8 km/h 84% 0.0 mm 320 W/m2
09:10 19 °C 16 °C 1011.2 hPa Calm   4.8 km/h 83% 0.0 mm 302 W/m2
09:15 19.1 °C 16.1 °C 1011.2 hPa Calm   1.6 km/h 83% 0.0 mm 274 W/m2
09:20 19.1 °C 16 °C 1011.2 hPa Calm   4.8 km/h 82% 0.0 mm 258 W/m2
09:25 19.1 °C 16 °C 1011.2 hPa Calm   1.6 km/h 82% 0.0 mm 250 W/m2
09:30 19.2 °C 16.1 °C 1010.8 hPa ENE 1.4 km/h 4.8 km/h 82% 0.0 mm 278 W/m2
09:35 19.2 °C 15.9 °C 1010.8 hPa NE 1.4 km/h 3.2 km/h 81% 0.0 mm 278 W/m2
09:40 19.2 °C 16.1 °C 1010.8 hPa ENE 1.4 km/h 1.6 km/h 82% 0.0 mm 332 W/m2
09:45 19.3 °C 16.1 °C 1010.8 hPa ESE 3.2 km/h 6.4 km/h 82% 0.0 mm 244 W/m2
09:50 19.3 °C 16 °C 1010.8 hPa East 1.4 km/h 4.8 km/h 81% 0.0 mm 306 W/m2
09:55 19.3 °C 16 °C 1010.8 hPa Calm   6.4 km/h 81% 0.0 mm 311 W/m2
10:00 19.3 °C 16 °C 1010.8 hPa Calm   1.6 km/h 81% 0.0 mm 276 W/m2
10:05 19.4 °C 15.9 °C 1010.8 hPa Calm   1.6 km/h 80% 0.0 mm 251 W/m2
10:10 19.3 °C 16 °C 1010.8 hPa ENE 1.4 km/h 3.2 km/h 81% 0.0 mm 225 W/m2
10:15 19.3 °C 16 °C 1010.8 hPa Calm   1.6 km/h 81% 0.0 mm 234 W/m2
10:20 19.3 °C 16.1 °C 1010.8 hPa NE 1.4 km/h 3.2 km/h 82% 0.0 mm 216 W/m2
10:25 19.3 °C 16 °C 1010.8 hPa Calm   4.8 km/h 81% 0.0 mm 181 W/m2
10:30 19.3 °C 16.1 °C 1010.8 hPa ENE 1.4 km/h 1.6 km/h 82% 0.0 mm 200 W/m2
10:35 19.4 °C 16.2 °C 1010.8 hPa Calm   3.2 km/h 82% 0.0 mm 232 W/m2
10:40 19.4 °C 16.1 °C 1010.8 hPa NE 1.4 km/h 1.6 km/h 81% 0.0 mm 269 W/m2
10:45 19.4 °C 16.1 °C 1010.5 hPa NE 1.4 km/h 3.2 km/h 81% 0.0 mm 327 W/m2
10:50 19.6 °C 16.4 °C 1010.5 hPa Calm   4.8 km/h 82% 0.0 mm 320 W/m2
10:55 19.7 °C 16.5 °C 1010.5 hPa Calm   4.8 km/h 82% 0.0 mm 320 W/m2
11:00 19.7 °C 16.5 °C 1010.5 hPa Calm     82% 0.0 mm 292 W/m2
11:05 19.8 °C 16.6 °C 1010.5 hPa East 1.4 km/h 4.8 km/h 82% 0.0 mm 260 W/m2
11:11 19.7 °C 16.3 °C 1010.5 hPa ENE 3.2 km/h 3.2 km/h 81% 0.0 mm 237 W/m2
11:16 19.7 °C 16.5 °C 1010.5 hPa NNE 1.4 km/h 4.8 km/h 82% 0.0 mm 186 W/m2
11:21 19.6 °C 16.6 °C 1010.5 hPa SE 3.2 km/h 3.2 km/h 83% 0.0 mm 190 W/m2
11:26 19.4 °C 16.4 °C 1010.5 hPa Calm   4.8 km/h 83% 0.0 mm 218 W/m2
11:31 19.3 °C 16.5 °C 1010.8 hPa NE 4.7 km/h 4.8 km/h 84% 0.0 mm 204 W/m2
11:36 19.3 °C 16.7 °C 1010.5 hPa Calm   8 km/h 85% 0.0 mm 193 W/m2
11:41 19.1 °C 16.5 °C 1010.5 hPa ENE 3.2 km/h 4.8 km/h 85% 0.0 mm 188 W/m2
11:46 18.9 °C 16.3 °C 1010.5 hPa NE 1.4 km/h 6.4 km/h 85% 0.2 mm 200 W/m2
11:51 18.8 °C 16.6 °C 1010.5 hPa East 3.2 km/h 4.8 km/h 87% 0.2 mm 183 W/m2
11:56 18.7 °C 16.7 °C 1010.8 hPa Calm   4.8 km/h 88% 0.2 mm 158 W/m2
12:01 18.6 °C 16.6 °C 1010.8 hPa ENE 1.4 km/h 3.2 km/h 88% 0.2 mm 186 W/m2
12:06 18.5 °C 16.5 °C 1010.8 hPa Calm   3.2 km/h 88% 0.2 mm 186 W/m2
12:11 18.5 °C 16.5 °C 1010.8 hPa SE 3.2 km/h 3.2 km/h 88% 0.5 mm 197 W/m2
12:16 18.4 °C 16.4 °C 1010.8 hPa SE 1.4 km/h 4.8 km/h 88% 0.5 mm 186 W/m2
12:21 18.4 °C 16.4 °C 1010.8 hPa East 1.4 km/h 3.2 km/h 88% 0.5 mm 186 W/m2
12:26 18.4 °C 16.4 °C 1010.8 hPa Calm   1.6 km/h 88% 0.5 mm 202 W/m2
12:31 18.4 °C 16.4 °C 1010.5 hPa Calm     88% 0.5 mm 188 W/m2
12:36 18.6 °C 16.6 °C 1010.8 hPa Calm     88% 0.5 mm 172 W/m2
12:41 18.7 °C 16.8 °C 1010.8 hPa Calm     89% 0.8 mm 171 W/m2
12:46 18.7 °C 16.7 °C 1010.8 hPa Calm     88% 0.5 mm 163 W/m2
12:52 18.7 °C 16.7 °C 1010.8 hPa Calm     88% 0.8 mm 144 W/m2
12:57 18.7 °C 16.8 °C 1010.8 hPa Calm   1.6 km/h 89% 0.8 mm 146 W/m2
13:02 18.4 °C 16.4 °C 1010.8 hPa West 1.4 km/h 6.4 km/h 88% 1.0 mm 125 W/m2
13:07 18.1 °C 16.1 °C 1010.8 hPa WSW 3.2 km/h 3.2 km/h 88% 1.0 mm 116 W/m2
13:12 17.7 °C 15.9 °C 1010.8 hPa WSW 4.7 km/h 9.7 km/h 89% 0.8 mm 105 W/m2
13:17 17.3 °C 15.5 °C 1010.8 hPa SW 7.9 km/h 9.7 km/h 89% 0.8 mm 111 W/m2
13:22 17 °C 15.2 °C 1010.8 hPa NW 3.2 km/h 14.5 km/h 89% 1.0 mm 113 W/m2
13:27 16.6 °C 15 °C 1010.8 hPa West 4.7 km/h 16.1 km/h 90% 1.0 mm 111 W/m2
13:32 16.3 °C 14.8 °C 1010.8 hPa West 6.4 km/h 8 km/h 91% 1.0 mm 109 W/m2
13:37 16.1 °C 14.6 °C 1010.5 hPa West 4.7 km/h 12.9 km/h 91% 1.0 mm 111 W/m2
13:42 16 °C 14.5 °C 1010.5 hPa WNW 3.2 km/h 16.1 km/h 91% 1.0 mm 135 W/m2
13:47 15.9 °C 14.4 °C 1010.5 hPa West 9.7 km/h 16.1 km/h 91% 0.8 mm 158 W/m2
13:52 15.9 °C 14.4 °C 1010.5 hPa West 4.7 km/h 11.3 km/h 91% 1.0 mm 151 W/m2
13:57 15.9 °C 14.6 °C 1010.5 hPa WSW 6.4 km/h 11.3 km/h 92% 1.0 mm 137 W/m2
14:02 15.9 °C 14.6 °C 1010.5 hPa West 6.4 km/h 12.9 km/h 92% 0.8 mm 125 W/m2
14:07 15.9 °C 14.8 °C 1010.5 hPa West 6.4 km/h 16.1 km/h 93% 1.0 mm 104 W/m2
14:12 15.8 °C 14.7 °C 1010.5 hPa West 6.4 km/h 12.9 km/h 93% 1.0 mm 95 W/m2
14:17 15.8 °C 14.7 °C 1010.2 hPa NW 9.7 km/h 12.9 km/h 93% 1.0 mm 91 W/m2
14:22 15.8 °C 14.7 °C 1010.2 hPa West 4.7 km/h 12.9 km/h 93% 0.8 mm 109 W/m2
14:27 15.8 °C 14.7 °C 1010.2 hPa WSW 13 km/h 20.9 km/h 93% 0.8 mm 120 W/m2
14:32 15.9 °C 14.8 °C 1010.2 hPa West 6.4 km/h 11.3 km/h 93% 0.5 mm 121 W/m2
14:37 15.9 °C 14.8 °C 1010.2 hPa WSW 11.1 km/h 22.5 km/h 93% 0.5 mm 146 W/m2
14:42 15.9 °C 14.6 °C 1010.2 hPa WNW 13 km/h 12.9 km/h 92% 0.5 mm 134 W/m2
14:47 16.1 °C 15 °C 1010.2 hPa West 9.7 km/h 22.5 km/h 93% 0.5 mm 179 W/m2
14:52 16.1 °C 15 °C 1010.2 hPa NW 4.7 km/h 16.1 km/h 93% 0.2 mm 209 W/m2
14:57 16.2 °C 15.1 °C 1010.2 hPa West 11.1 km/h 19.3 km/h 93% 0.2 mm 197 W/m2
15:02 16.3 °C 15.2 °C 1010.2 hPa WNW 6.4 km/h 14.5 km/h 93% 0.5 mm 130 W/m2
15:07 16.3 °C 15.2 °C 1010.2 hPa WSW 11.1 km/h 19.3 km/h 93% 0.2 mm 93 W/m2
15:12 16.2 °C 15.1 °C 1010.2 hPa WNW 13 km/h 20.9 km/h 93% 0.2 mm 111 W/m2
15:17 16.1 °C 14.8 °C 1010.2 hPa West 9.7 km/h 22.5 km/h 92% 0.2 mm 105 W/m2
15:22 16.1 °C 14.8 °C 1010.2 hPa West 13 km/h 19.3 km/h 92% 0.2 mm 62 W/m2
15:27 16 °C 14.7 °C 1010.2 hPa West 9.7 km/h 20.9 km/h 92% 0.2 mm 35 W/m2
15:32 15.9 °C 14.6 °C 1010.2 hPa WNW 14.3 km/h 19.3 km/h 92% 0.2 mm 42 W/m2
15:37 15.7 °C 14.4 °C 1010.2 hPa WSW 14.3 km/h 19.3 km/h 92% 0.2 mm 39 W/m2
15:42 15.6 °C 14.3 °C 1010.2 hPa West 9.7 km/h 17.7 km/h 92% 0.2 mm 42 W/m2
15:47 15.5 °C 14.2 °C 1010.2 hPa WNW 14.3 km/h 19.3 km/h 92% 0.2 mm 42 W/m2
15:52 15.5 °C 14.4 °C 1010.5 hPa West 4.7 km/h 17.7 km/h 93% 0.2 mm 46 W/m2
15:57 15.5 °C 14.4 °C 1010.2 hPa West 6.4 km/h 14.5 km/h 93% 0.5 mm 62 W/m2
16:02 15.5 °C 14.4 °C 1010.2 hPa West 4.7 km/h 12.9 km/h 93% 0.5 mm 63 W/m2
16:08 15.5 °C 14.4 °C 1010.5 hPa NW 3.2 km/h 12.9 km/h 93% 1.0 mm 54 W/m2
16:13 15.4 °C 14.4 °C 1010.5 hPa West 11.1 km/h 19.3 km/h 94% 1.5 mm 63 W/m2
16:18 15.4 °C 14.4 °C 1010.5 hPa WSW 6.4 km/h 14.5 km/h 94% 1.8 mm 46 W/m2
16:23 15.3 °C 14.3 °C 1010.5 hPa WNW 16.3 km/h 19.3 km/h 94% 2.0 mm 32 W/m2
16:28 15.2 °C 14.2 °C 1010.5 hPa West 11.1 km/h 22.5 km/h 94% 2.3 mm 47 W/m2
16:33 15 °C 13.9 °C 1010.5 hPa West 16.3 km/h 16.1 km/h 93% 2.3 mm 46 W/m2
16:38 14.9 °C 13.9 °C 1010.5 hPa SW 19.3 km/h 19.3 km/h 94% 2.5 mm 46 W/m2
16:43 14.8 °C 13.8 °C 1010.5 hPa West 14.3 km/h 24.1 km/h 94% 3.3 mm 63 W/m2
16:48 14.7 °C 13.7 °C 1010.5 hPa West 9.7 km/h 17.7 km/h 94% 3.3 mm 67 W/m2
16:53 14.7 °C 13.7 °C 1010.5 hPa WSW 6.4 km/h 22.5 km/h 94% 3.6 mm 74 W/m2
16:58 14.7 °C 13.7 °C 1010.5 hPa WNW 14.3 km/h 19.3 km/h 94% 3.6 mm 76 W/m2
17:03 14.7 °C 13.7 °C 1010.5 hPa West 16.3 km/h 20.9 km/h 94% 3.3 mm 79 W/m2
17:08 14.7 °C 13.7 °C 1010.5 hPa West 17.7 km/h 17.7 km/h 94% 3.0 mm 79 W/m2
17:13 14.7 °C 13.7 °C 1010.2 hPa WNW 14.3 km/h 14.5 km/h 94% 2.8 mm 83 W/m2
17:18 14.7 °C 13.7 °C 1010.2 hPa West 6.4 km/h 19.3 km/h 94% 2.5 mm 70 W/m2
17:23 14.7 °C 13.7 °C 1010.2 hPa WNW 6.4 km/h 20.9 km/h 94% 2.3 mm 46 W/m2
17:28 14.7 °C 13.7 °C 1010.2 hPa WSW 7.9 km/h 14.5 km/h 94% 2.3 mm 40 W/m2
17:34 14.7 °C 13.7 °C 1010.5 hPa WSW 11.1 km/h 20.9 km/h 94% 2.3 mm 42 W/m2
17:39 14.7 °C 13.7 °C 1010.5 hPa West 14.3 km/h 16.1 km/h 94% 2.0 mm 46 W/m2
17:44 14.7 °C 13.7 °C 1010.5 hPa WSW 6.4 km/h 20.9 km/h 94% 2.0 mm 42 W/m2
17:49 14.7 °C 13.7 °C 1010.5 hPa WSW 7.9 km/h 11.3 km/h 94% 2.3 mm 37 W/m2
17:54 14.7 °C 13.7 °C 1010.8 hPa WNW 3.2 km/h 6.4 km/h 94% 2.3 mm 35 W/m2
17:59 14.7 °C 13.7 °C 1010.8 hPa NW 6.4 km/h 8 km/h 94% 2.3 mm 35 W/m2
18:04 14.7 °C 13.7 °C 1010.8 hPa WNW 4.7 km/h 11.3 km/h 94% 2.3 mm 37 W/m2
18:09 14.7 °C 13.9 °C 1010.8 hPa WNW 6.4 km/h 9.7 km/h 95% 2.8 mm 35 W/m2
18:14 14.7 °C 13.9 °C 1010.8 hPa WSW 6.4 km/h 12.9 km/h 95% 2.8 mm 32 W/m2
18:19 14.7 °C 13.9 °C 1010.8 hPa WSW 9.7 km/h 14.5 km/h 95% 3.0 mm 33 W/m2
18:24 14.7 °C 13.9 °C 1010.8 hPa West 9.7 km/h 12.9 km/h 95% 3.3 mm 39 W/m2
18:29 14.7 °C 13.9 °C 1010.8 hPa West 4.7 km/h 9.7 km/h 95% 3.6 mm 35 W/m2
18:34 14.7 °C 13.9 °C 1010.8 hPa West 4.7 km/h 6.4 km/h 95% 3.8 mm 35 W/m2
18:39 14.7 °C 13.9 °C 1010.8 hPa NW 1.4 km/h 8 km/h 95% 4.1 mm 35 W/m2
18:45 14.7 °C 13.7 °C 1010.8 hPa WNW 4.7 km/h 9.7 km/h 94% 4.1 mm 37 W/m2
18:50 14.6 °C 13.6 °C 1010.8 hPa West 6.4 km/h 9.7 km/h 94% 3.8 mm 35 W/m2
18:55 14.6 °C 13.6 °C 1010.8 hPa West 4.7 km/h 11.3 km/h 94% 3.6 mm 37 W/m2
19:00 14.6 °C 13.6 °C 1010.8 hPa WSW 1.4 km/h 6.4 km/h 94% 3.6 mm 37 W/m2
19:05 14.6 °C 13.6 °C 1010.8 hPa WNW 4.7 km/h 11.3 km/h 94% 3.6 mm 35 W/m2
19:10 14.6 °C 13.6 °C 1010.8 hPa West 6.4 km/h 11.3 km/h 94% 3.3 mm 35 W/m2
19:15 14.5 °C 13.5 °C 1010.8 hPa WNW 6.4 km/h 11.3 km/h 94% 3.3 mm 37 W/m2
19:20 14.6 °C 13.6 °C 1010.8 hPa WSW 4.7 km/h 6.4 km/h 94% 3.0 mm 39 W/m2
19:25 14.6 °C 13.6 °C 1010.5 hPa West 6.4 km/h 9.7 km/h 94% 2.5 mm 40 W/m2
19:30 14.6 °C 13.8 °C 1010.5 hPa West 4.7 km/h 9.7 km/h 95% 2.3 mm 40 W/m2
19:35 14.6 °C 13.8 °C 1010.5 hPa WNW 4.7 km/h 6.4 km/h 95% 2.3 mm 39 W/m2
19:40 14.6 °C 13.8 °C 1010.5 hPa West 4.7 km/h 6.4 km/h 95% 1.8 mm 42 W/m2
19:45 14.6 °C 13.8 °C 1010.5 hPa West 3.2 km/h 8 km/h 95% 1.8 mm 44 W/m2
19:50 14.6 °C 13.8 °C 1010.5 hPa WNW 4.7 km/h 6.4 km/h 95% 1.5 mm 39 W/m2
19:55 14.6 °C 13.8 °C 1010.5 hPa West 6.4 km/h 6.4 km/h 95% 1.5 mm 35 W/m2
20:00 14.6 °C 13.8 °C 1010.5 hPa WNW 3.2 km/h 9.7 km/h 95% 1.5 mm 33 W/m2
20:05 14.5 °C 13.5 °C 1010.5 hPa West 6.4 km/h 6.4 km/h 94% 1.3 mm 30 W/m2
20:10 14.4 °C 13.4 °C 1010.5 hPa WNW 1.4 km/h 6.4 km/h 94% 1.3 mm 26 W/m2
20:15 14.4 °C 13.4 °C 1010.5 hPa Calm   4.8 km/h 94% 1.3 mm 26 W/m2
20:20 14.4 °C 13.4 °C 1010.8 hPa WNW 4.7 km/h 6.4 km/h 94% 1.0 mm 26 W/m2
20:25 14.4 °C 13.4 °C 1010.5 hPa SW 6.4 km/h 11.3 km/h 94% 0.8 mm 26 W/m2
20:35 14.3 °C 13.3 °C 1010.5 hPa WNW 3.2 km/h 8 km/h 94% 0.5 mm 33 W/m2
20:40 14.3 °C 13.3 °C 1010.5 hPa WSW 3.2 km/h 3.2 km/h 94% 0.5 mm 35 W/m2
20:45 14.3 °C 13.3 °C 1010.5 hPa WNW 6.4 km/h 9.7 km/h 94% 0.5 mm 35 W/m2
20:50 14.3 °C 13.3 °C 1010.5 hPa West 3.2 km/h 8 km/h 94% 0.5 mm 30 W/m2
20:55 14.2 °C 13.2 °C 1010.8 hPa West 3.2 km/h 6.4 km/h 94% 0.5 mm 21 W/m2
21:00 14.2 °C 13.2 °C 1010.8 hPa SW 7.9 km/h 9.7 km/h 94% 0.5 mm 16 W/m2
21:05 14.2 °C 13.2 °C 1010.8 hPa WSW 6.4 km/h 6.4 km/h 94% 0.5 mm 11 W/m2
21:11 14.1 °C 13.1 °C 1010.8 hPa West 3.2 km/h 3.2 km/h 94% 0.2 mm 9 W/m2
21:16 14.1 °C 13.1 °C 1010.8 hPa NW 4.7 km/h 6.4 km/h 94% 0.2 mm 7 W/m2
21:21 14.1 °C 13.1 °C 1010.8 hPa NW 3.2 km/h 3.2 km/h 94% 0.2 mm 5 W/m2
21:26 14.1 °C 13.1 °C 1010.8 hPa WSW 1.4 km/h 4.8 km/h 94% 0.2 mm 5 W/m2
21:31 14.1 °C 13.1 °C 1010.8 hPa WSW 1.4 km/h 1.6 km/h 94% 0.2 mm 0 W/m2
21:36 14 °C 13 °C 1010.8 hPa Calm   3.2 km/h 94% 0.2 mm 0 W/m2
21:41 13.9 °C 12.9 °C 1010.8 hPa Calm   3.2 km/h 94% 0.2 mm 0 W/m2
21:46 13.8 °C 12.9 °C 1010.8 hPa ESE 1.4 km/h 1.6 km/h 94% 0.2 mm 0 W/m2
21:51 13.8 °C 13 °C 1011.2 hPa Calm   1.6 km/h 95% 0.0 mm 0 W/m2
21:56 13.8 °C 13 °C 1011.2 hPa Calm   1.6 km/h 95% 0.0 mm 0 W/m2
22:01 13.8 °C 12.9 °C 1011.2 hPa Calm     94% 0.0 mm 0 W/m2
22:06 13.7 °C 12.9 °C 1011.2 hPa Calm     95% 0.0 mm 0 W/m2
22:11 13.7 °C 12.9 °C 1011.2 hPa Calm     95% 0.0 mm 0 W/m2
22:16 13.7 °C 12.9 °C 1011.5 hPa Calm     95% 0.0 mm 0 W/m2
22:21 13.6 °C 12.8 °C 1011.5 hPa Calm     95% 0.0 mm 0 W/m2
22:26 13.6 °C 12.8 °C 1011.5 hPa Calm     95% 0.0 mm 0 W/m2
22:31 13.6 °C 12.8 °C 1011.5 hPa Calm   3.2 km/h 95% 0.0 mm 0 W/m2
22:36 13.4 °C 12.6 °C 1011.5 hPa West 1.4 km/h 1.6 km/h 95% 0.0 mm 0 W/m2
22:42 13.4 °C 12.6 °C 1011.5 hPa Calm     95% 0.0 mm 0 W/m2
22:47 13.4 °C 12.6 °C 1011.9 hPa Calm     95% 0.0 mm 0 W/m2
22:52 13.3 °C 12.5 °C 1011.9 hPa NW 1.4 km/h 4.8 km/h 95% 0.0 mm 0 W/m2
22:57 13.3 °C 12.5 °C 1011.9 hPa Calm     95% 0.0 mm 0 W/m2
23:02 13.3 °C 12.5 °C 1011.9 hPa Calm   1.6 km/h 95% 0.0 mm 0 W/m2
23:07 13.3 °C 12.5 °C 1011.9 hPa Calm     95% 0.0 mm 0 W/m2
23:12 13.3 °C 12.5 °C 1011.9 hPa Calm     95% 0.0 mm 0 W/m2
23:17 13.3 °C 12.5 °C 1011.9 hPa Calm     95% 0.0 mm 0 W/m2
23:22 13.3 °C 12.5 °C 1011.9 hPa Calm   3.2 km/h 95% 0.0 mm 0 W/m2
23:32 13.3 °C 12.5 °C 1011.9 hPa SSW 3.2 km/h 3.2 km/h 95% 0.0 mm 0 W/m2
23:37 13.3 °C 12.7 °C 1011.9 hPa WSW 1.4 km/h 3.2 km/h 96% 0.0 mm 0 W/m2
23:42 13.3 °C 12.7 °C 1011.9 hPa Calm   1.6 km/h 96% 0.0 mm 0 W/m2
23:47 13.3 °C 12.5 °C 1011.9 hPa WSW 1.4 km/h 3.2 km/h 95% 0.0 mm 0 W/m2
23:52 13.3 °C 12.5 °C 1011.9 hPa Calm   3.2 km/h 95% 0.0 mm 0 W/m2
23:57 13.3 °C 12.7 °C 1011.9 hPa Calm   1.6 km/h 96% 0.0 mm 0 W/m2
Juneau County Weather
Compliments of Weather Underground - 4 mb